createdAt,value
2018-10-06T00:00:23.231Z,11.28
2018-10-06T00:02:52.265Z,11.20
2018-10-06T00:05:21.253Z,11.20
2018-10-06T00:07:50.177Z,11.18
2018-10-06T00:10:19.114Z,11.22
2018-10-06T00:12:48.014Z,11.23
2018-10-06T00:15:16.931Z,11.17
2018-10-06T00:17:45.870Z,11.15
2018-10-06T00:20:14.781Z,11.14
2018-10-06T00:22:43.708Z,11.13
2018-10-06T00:25:12.641Z,11.12
2018-10-06T00:27:41.648Z,11.14
2018-10-06T00:30:10.484Z,11.42
2018-10-06T00:32:39.396Z,11.14
2018-10-06T00:35:08.337Z,11.11
2018-10-06T00:37:37.295Z,11.06
2018-10-06T00:40:06.229Z,11.06
2018-10-06T00:42:35.224Z,11.02
2018-10-06T00:45:04.110Z,11.01
2018-10-06T00:47:33.075Z,11.09
2018-10-06T00:50:02.017Z,11.07
2018-10-06T00:52:30.950Z,11.14
2018-10-06T00:54:59.899Z,11.20
2018-10-06T00:57:28.858Z,11.47
2018-10-06T00:59:57.797Z,11.26
2018-10-06T01:02:26.753Z,11.31
2018-10-06T01:04:55.655Z,11.33
2018-10-06T01:07:24.867Z,11.26
2018-10-06T01:09:53.811Z,11.16
2018-10-06T01:12:22.714Z,11.09
2018-10-06T01:14:51.659Z,11.04
2018-10-06T01:17:20.576Z,11.02
2018-10-06T01:19:49.504Z,10.91
2018-10-06T01:22:18.437Z,10.86
2018-10-06T01:24:47.370Z,10.85
2018-10-06T01:27:16.356Z,10.87
2018-10-06T01:29:45.302Z,11.25
2018-10-06T01:32:14.260Z,11.01
2018-10-06T01:34:43.186Z,11.04
2018-10-06T01:37:12.134Z,11.03
2018-10-06T01:39:41.095Z,11.05
2018-10-06T01:42:09.989Z,11.10
2018-10-06T01:44:38.930Z,11.16
2018-10-06T01:47:07.923Z,11.03
2018-10-06T01:49:36.881Z,10.97
2018-10-06T01:52:05.869Z,10.96
2018-10-06T01:54:34.820Z,10.93
2018-10-06T01:57:03.760Z,10.99
2018-10-06T01:59:32.690Z,10.98
2018-10-06T02:02:01.592Z,10.92
2018-10-06T02:04:30.540Z,10.83
2018-10-06T02:06:59.480Z,10.82
2018-10-06T02:09:28.440Z,10.74
2018-10-06T02:11:57.391Z,10.66
2018-10-06T02:14:26.310Z,10.64
2018-10-06T02:16:55.278Z,10.61
2018-10-06T02:19:24.188Z,10.58
2018-10-06T02:21:53.121Z,10.55
2018-10-06T02:24:22.044Z,10.49
2018-10-06T02:26:50.969Z,10.47
2018-10-06T02:29:19.943Z,10.49
2018-10-06T02:31:48.884Z,10.49
2018-10-06T02:34:17.812Z,10.79
2018-10-06T02:36:46.799Z,10.50
2018-10-06T02:39:15.712Z,10.43
2018-10-06T02:41:44.676Z,10.40
2018-10-06T02:44:13.597Z,10.39
2018-10-06T02:46:42.538Z,10.34
2018-10-06T02:49:11.470Z,10.29
2018-10-06T02:51:40.452Z,10.28
2018-10-06T02:54:09.416Z,10.26
2018-10-06T02:56:38.324Z,10.31
2018-10-06T02:59:07.352Z,10.33
2018-10-06T03:01:36.264Z,10.38
2018-10-06T03:04:05.257Z,10.34
2018-10-06T03:06:34.178Z,10.31
2018-10-06T03:09:03.494Z,10.29
2018-10-06T03:11:32.456Z,10.24
2018-10-06T03:14:01.384Z,10.22
2018-10-06T03:16:30.327Z,10.24
2018-10-06T03:18:59.285Z,10.18
2018-10-06T03:21:28.199Z,10.18
2018-10-06T03:23:57.124Z,10.23
2018-10-06T03:26:26.275Z,10.22
2018-10-06T03:28:55.171Z,10.18
2018-10-06T03:31:24.146Z,10.17
2018-10-06T03:33:53.079Z,10.19
2018-10-06T03:36:22.024Z,10.18
2018-10-06T03:38:50.934Z,10.17
2018-10-06T03:41:19.869Z,10.18
2018-10-06T03:43:48.771Z,10.49
2018-10-06T03:46:17.723Z,10.29
2018-10-06T03:48:46.647Z,10.23
2018-10-06T03:51:15.577Z,10.19
2018-10-06T03:53:44.498Z,10.16
2018-10-06T03:56:13.435Z,10.18
2018-10-06T03:58:42.403Z,10.16
2018-10-06T04:01:11.390Z,10.18
2018-10-06T04:03:40.304Z,10.12
2018-10-06T04:06:09.250Z,10.16
2018-10-06T04:08:38.176Z,10.15
2018-10-06T04:11:07.148Z,10.50
2018-10-06T04:13:36.071Z,10.25
2018-10-06T04:16:05.041Z,10.22
2018-10-06T04:18:33.984Z,10.25
2018-10-06T04:21:02.932Z,10.21
2018-10-06T04:23:31.891Z,10.22
2018-10-06T04:26:00.825Z,10.25
2018-10-06T04:28:29.826Z,10.59
2018-10-06T04:30:58.649Z,10.37
2018-10-06T04:33:27.607Z,10.30
2018-10-06T04:35:56.520Z,10.27
2018-10-06T04:38:25.489Z,10.24
2018-10-06T04:40:54.419Z,10.24
2018-10-06T04:43:23.349Z,10.28
2018-10-06T04:45:52.287Z,10.30
2018-10-06T04:48:21.210Z,10.25
2018-10-06T04:50:50.162Z,10.26
2018-10-06T04:53:19.153Z,10.61
2018-10-06T04:55:48.023Z,10.42
2018-10-06T04:58:16.962Z,10.40
2018-10-06T05:00:45.896Z,10.34
2018-10-06T05:03:14.861Z,10.29
2018-10-06T05:05:43.814Z,10.30
2018-10-06T05:08:12.753Z,10.25
2018-10-06T05:10:41.717Z,10.24
2018-10-06T05:13:10.655Z,10.20
2018-10-06T05:15:39.620Z,10.16
2018-10-06T05:18:08.607Z,10.21
2018-10-06T05:20:37.595Z,10.27
2018-10-06T05:23:06.624Z,10.26
2018-10-06T05:25:35.560Z,10.23
2018-10-06T05:28:04.548Z,10.28
2018-10-06T05:30:33.508Z,10.30
2018-10-06T05:33:02.436Z,10.28
2018-10-06T05:35:31.417Z,10.26
2018-10-06T05:38:00.356Z,10.27
2018-10-06T05:40:29.315Z,10.27
2018-10-06T05:42:58.245Z,10.29
2018-10-06T05:45:27.264Z,10.29
2018-10-06T05:47:56.203Z,10.30
2018-10-06T05:50:25.151Z,10.29
2018-10-06T05:52:54.082Z,10.33
2018-10-06T05:55:23.032Z,10.35
2018-10-06T05:57:52.028Z,10.34
2018-10-06T06:00:20.969Z,10.42
2018-10-06T06:02:49.925Z,10.52
2018-10-06T06:05:18.841Z,10.52
2018-10-06T06:07:47.774Z,10.56
2018-10-06T06:10:16.779Z,10.65
2018-10-06T06:12:45.739Z,10.74
2018-10-06T06:15:14.687Z,10.81
2018-10-06T06:17:43.637Z,10.83
2018-10-06T06:20:12.548Z,10.89
2018-10-06T06:22:41.516Z,10.95
2018-10-06T06:25:10.455Z,11.00
2018-10-06T06:27:39.395Z,11.39
2018-10-06T06:30:08.466Z,11.34
2018-10-06T06:32:37.415Z,11.47
2018-10-06T06:35:06.585Z,11.59
2018-10-06T06:37:35.552Z,11.68
2018-10-06T06:40:05.047Z,12.03
2018-10-06T06:42:34.003Z,11.94
2018-10-06T06:45:02.949Z,11.94
2018-10-06T06:47:31.895Z,12.06
2018-10-06T06:50:00.827Z,12.19
2018-10-06T06:52:29.766Z,12.29
2018-10-06T06:54:58.766Z,12.37
2018-10-06T06:57:27.666Z,12.48
2018-10-06T06:59:56.614Z,12.56
2018-10-06T07:02:25.553Z,12.65
2018-10-06T07:04:54.488Z,12.69
2018-10-06T07:07:23.511Z,12.74
2018-10-06T07:09:52.433Z,12.74
2018-10-06T07:12:21.381Z,12.86
2018-10-06T07:14:50.301Z,12.89
2018-10-06T07:17:19.248Z,13.01
2018-10-06T07:19:48.180Z,13.09
2018-10-06T07:22:17.172Z,13.15
2018-10-06T07:24:46.127Z,13.19
2018-10-06T07:27:15.043Z,13.33
2018-10-06T07:29:43.973Z,13.39
2018-10-06T07:32:12.955Z,13.47
2018-10-06T07:34:41.913Z,13.54
2018-10-06T07:37:11.039Z,13.64
2018-10-06T07:39:40.000Z,13.95
2018-10-06T07:42:09.057Z,13.95
2018-10-06T07:44:38.017Z,14.27
2018-10-06T07:47:07.055Z,14.51
2018-10-06T07:49:35.974Z,14.39
2018-10-06T07:52:04.967Z,14.45
2018-10-06T07:54:33.916Z,14.51
2018-10-06T07:57:02.923Z,14.57
2018-10-06T07:59:31.856Z,14.63
2018-10-06T08:02:00.822Z,14.71
2018-10-06T08:04:29.801Z,14.81
2018-10-06T08:06:58.796Z,14.91
2018-10-06T08:09:27.790Z,14.99
2018-10-06T08:11:56.723Z,15.10
2018-10-06T08:14:25.682Z,15.27
2018-10-06T08:16:54.636Z,15.78
2018-10-06T08:19:23.584Z,16.45
2018-10-06T08:21:52.533Z,16.29
2018-10-06T08:24:21.514Z,16.28
2018-10-06T08:26:50.495Z,16.36
2018-10-06T08:29:19.430Z,16.57
2018-10-06T08:31:49.229Z,16.42
2018-10-06T08:34:18.204Z,16.37
2018-10-06T08:36:47.193Z,16.36
2018-10-06T08:39:16.147Z,16.61
2018-10-06T08:41:45.124Z,16.95
2018-10-06T08:44:14.046Z,17.46
2018-10-06T08:46:43.084Z,17.81
2018-10-06T08:49:12.066Z,18.40
2018-10-06T08:51:41.028Z,18.66
2018-10-06T08:54:10.093Z,18.65
2018-10-06T08:56:39.041Z,18.60
2018-10-06T08:59:08.335Z,18.59
2018-10-06T09:01:37.324Z,18.43
2018-10-06T09:04:06.556Z,18.42
2018-10-06T09:06:35.609Z,18.35
2018-10-06T09:09:06.131Z,18.40
2018-10-06T09:11:35.020Z,18.44
2018-10-06T09:14:04.138Z,18.79
2018-10-06T09:16:33.079Z,18.99
2018-10-06T09:19:02.610Z,18.73
2018-10-06T09:21:31.645Z,18.75
2018-10-06T09:24:00.628Z,18.91
2018-10-06T09:26:29.644Z,19.07
2018-10-06T09:28:58.562Z,19.31
2018-10-06T09:31:27.538Z,19.41
2018-10-06T09:33:56.734Z,19.33
2018-10-06T09:36:25.702Z,19.53
2018-10-06T09:38:54.679Z,19.97
2018-10-06T09:41:23.759Z,19.64
2018-10-06T09:43:52.825Z,19.66
2018-10-06T09:46:21.777Z,19.70
2018-10-06T09:48:51.177Z,19.87
2018-10-06T09:51:20.147Z,20.85
2018-10-06T09:53:49.271Z,21.48
2018-10-06T09:56:18.148Z,22.52
2018-10-06T09:58:47.135Z,22.70
2018-10-06T10:01:33.885Z,22.83
2018-10-06T10:04:28.075Z,24.04
2018-10-06T10:06:57.128Z,25.89
2018-10-06T10:09:26.648Z,27.16
2018-10-06T10:11:55.583Z,28.35
2018-10-06T10:14:25.196Z,29.03
2018-10-06T10:16:54.238Z,28.50
2018-10-06T10:19:23.206Z,30.27
2018-10-06T10:21:52.284Z,28.71
2018-10-06T10:24:21.187Z,28.84
2018-10-06T10:26:50.173Z,28.92
2018-10-06T10:29:19.118Z,29.40
2018-10-06T10:31:48.069Z,30.23
2018-10-06T10:34:17.152Z,29.39
2018-10-06T10:36:46.045Z,29.47
2018-10-06T10:39:15.082Z,31.35
2018-10-06T10:41:43.968Z,29.91
2018-10-06T10:44:13.046Z,30.01
2018-10-06T10:46:42.013Z,29.61
2018-10-06T10:49:11.041Z,29.51
2018-10-06T10:51:40.031Z,31.47
2018-10-06T10:54:09.076Z,31.25
2018-10-06T10:56:38.302Z,31.39
2018-10-06T10:59:07.545Z,30.76
2018-10-06T11:01:36.556Z,30.66
2018-10-06T11:04:05.709Z,29.95
2018-10-06T11:06:34.600Z,30.18
2018-10-06T11:09:04.846Z,32.17
2018-10-06T11:11:33.859Z,30.97
2018-10-06T11:14:02.868Z,29.73
2018-10-06T11:16:31.867Z,30.52
2018-10-06T11:19:00.829Z,30.35
2018-10-06T11:21:30.691Z,30.34
2018-10-06T11:24:00.449Z,30.67
2018-10-06T11:26:29.865Z,30.35
2018-10-06T11:28:58.923Z,30.41
2018-10-06T11:31:27.922Z,29.89
2018-10-06T11:33:56.862Z,28.48
2018-10-06T11:36:25.858Z,27.98
2018-10-06T11:38:54.807Z,27.65
2018-10-06T11:41:23.773Z,27.46
2018-10-06T11:43:53.029Z,26.47
2018-10-06T11:46:22.217Z,26.90
2018-10-06T11:48:51.159Z,26.37
2018-10-06T11:51:20.390Z,26.03
2018-10-06T11:53:49.348Z,26.25
2018-10-06T11:56:18.338Z,25.51
2018-10-06T11:58:47.317Z,25.61
2018-10-06T12:01:16.445Z,25.42
2018-10-06T12:03:45.572Z,25.51
2018-10-06T12:06:14.609Z,25.32
2018-10-06T12:08:43.536Z,25.20
2018-10-06T12:11:12.527Z,25.50
2018-10-06T12:13:41.469Z,25.30
2018-10-06T12:16:10.516Z,25.42
2018-10-06T12:18:39.477Z,25.44
2018-10-06T12:21:08.528Z,25.42
2018-10-06T12:23:37.548Z,25.45
2018-10-06T12:26:06.648Z,25.59
2018-10-06T12:28:35.569Z,25.44
2018-10-06T12:31:04.767Z,25.30
2018-10-06T12:33:33.942Z,25.40
2018-10-06T12:36:03.309Z,25.57
2018-10-06T12:38:32.249Z,25.44
2018-10-06T12:41:01.232Z,25.38
2018-10-06T12:43:30.229Z,25.31
2018-10-06T12:45:59.218Z,25.33
2018-10-06T12:48:28.176Z,25.29
2018-10-06T12:50:57.111Z,24.89
2018-10-06T12:53:26.157Z,24.98
2018-10-06T12:55:55.164Z,24.99
2018-10-06T12:58:24.220Z,24.51
2018-10-06T13:00:54.495Z,24.57
2018-10-06T13:03:24.313Z,24.50
2018-10-06T13:05:57.411Z,24.67
2018-10-06T13:08:26.425Z,24.75
2018-10-06T13:10:55.350Z,24.73
2018-10-06T13:13:24.344Z,24.79
2018-10-06T13:15:53.387Z,24.82
2018-10-06T13:18:22.367Z,25.10
2018-10-06T13:20:51.345Z,24.85
2018-10-06T13:23:20.359Z,24.80
2018-10-06T13:25:49.292Z,24.80
2018-10-06T13:28:20.855Z,24.71
2018-10-06T13:30:51.448Z,24.86
2018-10-06T13:33:23.665Z,24.53
2018-10-06T13:35:53.419Z,24.77
2018-10-06T13:38:26.102Z,24.54
2018-10-06T13:41:02.269Z,24.61
2018-10-06T13:43:37.928Z,24.86
2018-10-06T13:46:07.868Z,24.95
2018-10-06T13:48:38.290Z,24.94
2018-10-06T13:51:08.834Z,24.96
2018-10-06T13:53:38.729Z,24.94
2018-10-06T13:56:11.554Z,24.80
2018-10-06T13:58:49.461Z,24.89
2018-10-06T14:01:21.251Z,24.70
2018-10-06T14:03:55.445Z,24.62
2018-10-06T14:06:25.118Z,24.39
2018-10-06T14:08:55.418Z,24.38
2018-10-06T14:11:31.015Z,24.30
2018-10-06T14:14:03.385Z,24.40
2018-10-06T14:16:33.427Z,24.50
2018-10-06T14:19:02.689Z,24.53
2018-10-06T14:21:33.158Z,24.53
2018-10-06T14:24:06.424Z,24.41
2018-10-06T14:26:39.252Z,24.25
2018-10-06T14:29:12.884Z,24.23
2018-10-06T14:31:44.917Z,24.20
2018-10-06T14:34:15.395Z,24.10
2018-10-06T14:36:47.923Z,23.78
2018-10-06T14:39:22.052Z,23.77
2018-10-06T14:42:00.999Z,23.73
2018-10-06T14:44:37.121Z,23.72
2018-10-06T14:47:13.012Z,23.69
2018-10-06T14:49:42.910Z,23.63
2018-10-06T14:52:19.237Z,23.62
2018-10-06T14:54:48.861Z,23.44
2018-10-06T14:57:18.752Z,23.47
2018-10-06T14:59:48.210Z,23.44
2018-10-06T15:02:18.199Z,23.33
2018-10-06T15:04:48.376Z,23.38
2018-10-06T15:07:23.646Z,23.35
2018-10-06T15:10:00.423Z,23.37
2018-10-06T15:12:32.893Z,23.39
2018-10-06T15:15:40.199Z,23.39
2018-10-06T15:18:28.181Z,23.33
2018-10-06T15:21:00.376Z,23.17
2018-10-06T15:23:35.475Z,22.96
2018-10-06T15:26:06.291Z,23.22
2018-10-06T15:28:38.244Z,23.05
2018-10-06T15:31:08.384Z,23.00
2018-10-06T15:33:38.752Z,22.91
2018-10-06T15:36:29.574Z,22.83
2018-10-06T15:39:27.885Z,22.74
2018-10-06T15:42:08.067Z,22.54
2018-10-06T15:44:40.323Z,22.46
2018-10-06T15:47:15.257Z,22.34
2018-10-06T15:49:47.576Z,22.31
2018-10-06T15:52:44.794Z,22.35
2018-10-06T15:55:22.598Z,22.37
2018-10-06T15:57:55.621Z,22.39
2018-10-06T16:00:27.943Z,22.36
2018-10-06T16:03:00.627Z,22.33
2018-10-06T16:05:33.574Z,22.26
2018-10-06T16:08:03.611Z,22.30
2018-10-06T16:10:34.350Z,22.11
2018-10-06T16:13:04.380Z,21.94
2018-10-06T16:15:33.857Z,21.79
2018-10-06T16:18:03.826Z,21.67
2018-10-06T16:20:34.126Z,21.58
2018-10-06T16:23:03.980Z,21.44
2018-10-06T16:25:33.860Z,21.44
2018-10-06T16:28:02.847Z,21.26
2018-10-06T16:30:31.815Z,21.17
2018-10-06T16:33:00.797Z,20.96
2018-10-06T16:35:29.932Z,20.99
2018-10-06T16:37:58.854Z,20.95
2018-10-06T16:40:27.832Z,20.73
2018-10-06T16:42:56.783Z,20.68
2018-10-06T16:45:25.751Z,20.56
2018-10-06T16:47:55.358Z,20.44
2018-10-06T16:50:24.304Z,20.36
2018-10-06T16:52:53.286Z,20.27
2018-10-06T16:55:22.273Z,20.26
2018-10-06T16:58:00.969Z,20.17
2018-10-06T17:00:34.816Z,20.13
2018-10-06T17:03:09.650Z,20.18
2018-10-06T17:05:38.628Z,19.94
2018-10-06T17:08:07.631Z,19.81
2018-10-06T17:10:36.610Z,19.69
2018-10-06T17:13:05.604Z,19.63
2018-10-06T17:15:34.709Z,19.53
2018-10-06T17:18:03.783Z,19.70
2018-10-06T17:20:32.850Z,19.59
2018-10-06T17:23:02.306Z,19.58
2018-10-06T17:25:31.319Z,19.59
2018-10-06T17:28:00.276Z,19.78
2018-10-06T17:30:29.220Z,19.65
2018-10-06T17:32:58.196Z,19.64
2018-10-06T17:35:27.135Z,19.52
2018-10-06T17:37:56.138Z,19.37
2018-10-06T17:40:25.152Z,19.53
2018-10-06T17:42:54.250Z,19.58
2018-10-06T17:45:23.321Z,19.35
2018-10-06T17:47:52.366Z,19.26
2018-10-06T17:50:21.514Z,19.47
2018-10-06T17:52:50.345Z,19.27
2018-10-06T17:55:19.337Z,19.24
2018-10-06T17:57:48.304Z,19.25
2018-10-06T18:00:17.349Z,19.15
2018-10-06T18:02:46.319Z,19.08
2018-10-06T18:05:15.240Z,19.06
2018-10-06T18:07:44.184Z,18.97
2018-10-06T18:10:13.151Z,18.90
2018-10-06T18:12:42.106Z,18.78
2018-10-06T18:15:11.051Z,18.74
2018-10-06T18:17:40.059Z,18.69
2018-10-06T18:20:09.109Z,18.58
2018-10-06T18:22:37.992Z,18.54
2018-10-06T18:25:06.917Z,18.47
2018-10-06T18:27:35.874Z,18.53
2018-10-06T18:30:05.058Z,18.47
2018-10-06T18:32:34.093Z,18.36
2018-10-06T18:35:03.055Z,18.32
2018-10-06T18:37:32.028Z,18.52
2018-10-06T18:40:01.238Z,18.38
2018-10-06T18:42:30.332Z,18.39
2018-10-06T18:44:59.356Z,18.32
2018-10-06T18:47:28.375Z,18.30
2018-10-06T18:49:58.376Z,18.29
2018-10-06T18:52:27.444Z,18.31
2018-10-06T18:54:56.318Z,18.30
2018-10-06T18:57:25.372Z,18.19
2018-10-06T18:59:54.298Z,18.22
2018-10-06T19:02:23.245Z,18.20
2018-10-06T19:04:52.339Z,18.19
2018-10-06T19:07:21.334Z,18.20
2018-10-06T19:09:50.451Z,18.30
2018-10-06T19:12:19.422Z,18.37
2018-10-06T19:14:48.365Z,18.25
2018-10-06T19:17:17.515Z,18.40
2018-10-06T19:19:46.475Z,18.24
2018-10-06T19:22:15.534Z,18.19
2018-10-06T19:24:44.952Z,18.12
2018-10-06T19:27:14.895Z,18.11
2018-10-06T19:29:44.889Z,18.07
2018-10-06T19:32:14.080Z,18.02
2018-10-06T19:34:43.759Z,17.96
2018-10-06T19:37:15.432Z,17.90
2018-10-06T19:39:45.119Z,17.90
2018-10-06T19:42:17.819Z,17.82
2018-10-06T19:44:49.025Z,17.97
2018-10-06T19:47:18.658Z,17.83
2018-10-06T19:49:48.464Z,17.81
2018-10-06T19:52:18.299Z,17.76
2018-10-06T19:54:47.889Z,17.77
2018-10-06T19:57:19.019Z,17.79
2018-10-06T19:59:48.496Z,17.78
2018-10-06T20:02:19.592Z,17.76
2018-10-06T20:04:49.558Z,17.73
2018-10-06T20:07:18.756Z,17.66
2018-10-06T20:09:49.009Z,17.59
2018-10-06T20:12:21.538Z,17.61
2018-10-06T20:14:51.148Z,17.43
2018-10-06T20:17:23.583Z,17.34
2018-10-06T20:19:53.571Z,17.36
2018-10-06T20:22:23.480Z,17.31
2018-10-06T20:24:52.963Z,17.24
2018-10-06T20:27:22.853Z,17.33
2018-10-06T20:29:52.351Z,17.16
2018-10-06T20:32:23.561Z,17.07
2018-10-06T20:34:53.444Z,17.08
2018-10-06T20:37:22.979Z,17.09
2018-10-06T20:39:52.794Z,17.05
2018-10-06T20:42:22.425Z,17.03
2018-10-06T20:44:52.426Z,16.98
2018-10-06T20:47:22.631Z,16.97
2018-10-06T20:49:53.059Z,16.92
2018-10-06T20:52:25.145Z,16.87
2018-10-06T20:54:53.046Z,16.83
2018-10-06T20:57:22.378Z,16.75
2018-10-06T20:59:55.931Z,16.76
2018-10-06T21:02:25.123Z,16.73
2018-10-06T21:04:54.528Z,16.71
2018-10-06T21:07:24.148Z,16.67
2018-10-06T21:09:54.026Z,16.62
2018-10-06T21:12:26.742Z,16.66
2018-10-06T21:14:59.517Z,16.66
2018-10-06T21:17:29.143Z,16.67
2018-10-06T21:19:59.062Z,16.68
2018-10-06T21:22:28.866Z,16.65
2018-10-06T21:24:58.891Z,16.65
2018-10-06T21:27:29.173Z,16.68
2018-10-06T21:29:58.479Z,16.62
2018-10-06T21:32:27.918Z,16.62
2018-10-06T21:34:59.762Z,16.59
2018-10-06T21:37:28.894Z,16.54
2018-10-06T21:40:13.046Z,16.53
2018-10-06T21:42:41.969Z,16.50
2018-10-06T21:45:10.975Z,16.48
2018-10-06T21:47:39.913Z,16.49
2018-10-06T21:50:08.859Z,16.48
2018-10-06T21:52:37.803Z,16.46
2018-10-06T21:55:06.755Z,16.50
2018-10-06T21:57:35.665Z,16.51
2018-10-06T22:00:05.062Z,16.51
2018-10-06T22:02:33.982Z,16.48
2018-10-06T22:05:02.925Z,16.39
2018-10-06T22:07:31.886Z,16.39
2018-10-06T22:10:00.824Z,16.40
2018-10-06T22:12:29.764Z,16.37
2018-10-06T22:14:58.702Z,16.32
2018-10-06T22:17:27.652Z,16.32
2018-10-06T22:19:56.567Z,16.28
2018-10-06T22:22:25.519Z,16.27
2018-10-06T22:24:54.444Z,16.31
2018-10-06T22:27:23.434Z,16.30
2018-10-06T22:29:52.357Z,16.27
2018-10-06T22:32:21.328Z,16.27
2018-10-06T22:34:50.248Z,16.28
2018-10-06T22:37:19.193Z,16.29
2018-10-06T22:39:48.113Z,16.25
2018-10-06T22:42:17.065Z,16.23
2018-10-06T22:44:46.008Z,16.23
2018-10-06T22:47:14.952Z,16.19
2018-10-06T22:49:43.930Z,16.15
2018-10-06T22:52:12.849Z,16.11
2018-10-06T22:54:41.802Z,16.18
2018-10-06T22:57:10.768Z,16.29
2018-10-06T22:59:39.704Z,16.16
2018-10-06T23:02:08.664Z,16.14
2018-10-06T23:04:37.636Z,16.16
2018-10-06T23:07:06.649Z,16.14
2018-10-06T23:09:35.623Z,16.12
2018-10-06T23:12:04.562Z,16.07
2018-10-06T23:14:33.480Z,15.97
2018-10-06T23:17:02.420Z,15.98
2018-10-06T23:19:31.390Z,15.94
2018-10-06T23:22:00.320Z,15.92
2018-10-06T23:24:29.272Z,15.88
2018-10-06T23:26:58.252Z,15.87
2018-10-06T23:29:27.137Z,16.00
2018-10-06T23:31:56.085Z,15.82
2018-10-06T23:34:25.007Z,15.78
2018-10-06T23:36:54.003Z,15.74
2018-10-06T23:39:22.924Z,15.69
2018-10-06T23:41:51.896Z,15.91
2018-10-06T23:44:20.827Z,15.71
2018-10-06T23:46:49.781Z,15.70
2018-10-06T23:49:18.711Z,15.60
2018-10-06T23:51:47.667Z,15.74
2018-10-06T23:54:16.592Z,15.53
2018-10-06T23:56:45.562Z,15.75
2018-10-06T23:59:14.492Z,15.49
